Time;durP1;ratioP1;P1;durP2;ratioP2;P2;SDS_P1;SDS_P2;PMS_P1;PMS_P2;Temp;Humidity;BMP_temperature;BMP_pressure;BME280_temperature;BME280_humidity;BME280_pressure;Samples;Min_cycle;Max_cycle;Signal;HPM_P1;HPM_P2
2022/06/13 02:46:54;;;;;;;1.48;0.32;;;19.60;98.10;;;;;;5742728;23;93854;-83
2022/06/13 02:49:32;;;;;;;1.42;0.43;;;19.50;98.40;;;;;;4904640;28;92563;-82
2022/06/13 02:52:09;;;;;;;1.48;0.30;;;19.40;99.00;;;;;;4910439;28;92677;-82
2022/06/13 02:54:48;;;;;;;2.38;0.40;;;19.40;99.70;;;;;;4910425;28;91895;-82
2022/06/13 02:57:38;;;;;;;3.15;0.47;;;19.40;99.90;;;;;;4909746;28;93187;-82
2022/06/13 03:00:27;;;;;;;1.85;0.50;;;19.20;99.90;;;;;;4909926;28;92114;-84
2022/06/13 03:03:14;;;;;;;1.88;0.65;;;19.10;99.90;;;;;;4911313;28;91713;-83
2022/06/13 03:05:57;;;;;;;2.80;0.73;;;19.10;99.90;;;;;;4911696;28;91695;-84
2022/06/13 03:08:48;;;;;;;1.73;0.22;;;18.90;99.90;;;;;;4910868;28;92701;-83
2022/06/13 03:11:28;;;;;;;1.77;0.40;;;19.00;99.90;;;;;;4913348;28;92346;-84
2022/06/13 03:14:07;;;;;;;1.77;0.40;;;19.10;99.90;;;;;;4911489;28;91357;-84
2022/06/13 03:16:41;;;;;;;2.05;0.32;;;19.10;99.90;;;;;;4911810;28;91250;-84
2022/06/13 03:19:27;;;;;;;1.90;0.40;;;19.10;99.90;;;;;;4910629;28;93820;-83
2022/06/13 03:22:10;;;;;;;2.55;0.50;;;19.00;99.90;;;;;;4910280;28;93802;-83
2022/06/13 03:24:47;;;;;;;3.40;0.40;;;19.10;99.90;;;;;;4909857;28;91332;-84
2022/06/13 03:27:31;;;;;;;3.65;0.55;;;19.10;99.90;;;;;;4909635;28;91792;-84
2022/06/13 03:30:17;;;;;;;2.28;0.47;;;19.20;99.90;;;;;;4910493;28;92586;-84
2022/06/13 03:35:39;;;;;;;2.97;0.60;;;18.90;99.90;;;;;;4918693;28;91415;-83
2022/06/13 03:38:09;;;;;;;2.45;0.50;;;18.90;99.90;;;;;;4916002;28;91228;-83
2022/06/13 03:40:40;;;;;;;3.80;0.60;;;18.90;99.90;;;;;;4910865;28;91702;-83
2022/06/13 03:43:23;;;;;;;2.78;0.60;;;18.80;99.90;;;;;;4910721;28;92932;-83
2022/06/13 03:45:59;;;;;;;3.42;0.82;;;18.80;99.90;;;;;;4910200;28;92680;-83
2022/06/13 03:48:50;;;;;;;4.68;1.00;;;18.50;99.90;;;;;;4908817;28;92064;-83
2022/06/13 03:51:23;;;;;;;2.70;0.52;;;18.40;99.90;;;;;;4909776;28;92327;-83
2022/06/13 03:54:18;;;;;;;6.43;0.80;;;18.50;99.90;;;;;;4909497;28;92882;-82
2022/06/13 03:57:08;;;;;;;4.13;0.85;;;18.50;99.90;;;;;;4909603;28;91272;-83
2022/06/13 03:59:59;;;;;;;5.95;0.60;;;18.50;99.90;;;;;;4908708;28;91862;-83
2022/06/13 04:02:29;;;;;;;4.13;1.10;;;18.50;99.90;;;;;;4909381;28;93676;-83
2022/06/13 04:04:55;;;;;;;;;;;18.30;99.90;;;;;;4909442;28;91996;-82
2022/06/13 04:07:23;;;;;;;3.67;0.75;;;18.20;99.90;;;;;;4910740;28;91870;-82
2022/06/13 04:10:06;;;;;;;5.03;1.05;;;18.30;99.90;;;;;;4909060;28;91726;-82
2022/06/13 04:13:03;;;;;;;2.85;0.70;;;18.20;99.90;;;;;;4908033;28;93371;-82
2022/06/13 04:15:53;;;;;;;4.70;0.90;;;18.30;99.90;;;;;;4909178;28;93261;-83
2022/06/13 04:18:49;;;;;;;3.05;0.75;;;18.40;99.90;;;;;;4910005;28;91688;-83
2022/06/13 04:21:15;;;;;;;4.70;1.15;;;18.40;99.90;;;;;;4909185;28;91275;-82
2022/06/13 04:24:05;;;;;;;3.00;0.80;;;18.30;99.90;;;;;;4908711;28;91833;-82
2022/06/13 04:26:42;;;;;;;2.20;0.77;;;18.30;99.90;;;;;;4909064;28;91509;-83
2022/06/13 04:29:21;;;;;;;3.47;0.93;;;18.40;99.90;;;;;;4909505;28;91288;-82
2022/06/13 04:31:48;;;;;;;4.22;0.63;;;18.40;99.90;;;;;;4909960;28;90972;-82
2022/06/13 04:34:22;;;;;;;6.28;0.70;;;18.40;99.90;;;;;;4908307;28;91746;-82
2022/06/13 04:36:49;;;;;;;3.17;0.98;;;18.50;99.90;;;;;;4908417;28;91726;-82
2022/06/13 04:39:23;;;;;;;3.53;0.90;;;18.60;99.90;;;;;;4908328;28;92656;-83
2022/06/13 04:41:51;;;;;;;7.25;1.08;;;18.40;99.90;;;;;;4909510;28;91699;-82
2022/06/13 04:44:20;;;;;;;4.30;0.80;;;18.10;99.90;;;;;;4908414;28;92399;-83
2022/06/13 04:46:47;;;;;;;6.18;0.77;;;18.00;99.90;;;;;;4907126;28;92987;-83
2022/06/13 04:49:39;;;;;;;4.60;0.80;;;18.10;99.90;;;;;;4908774;28;91726;-82
2022/06/13 04:52:13;;;;;;;4.00;0.82;;;18.40;99.90;;;;;;4908607;28;91933;-82
2022/06/13 04:54:46;;;;;;;4.82;1.00;;;18.60;99.90;;;;;;4908681;28;92416;-82
2022/06/13 04:57:14;;;;;;;4.43;1.48;;;18.70;99.90;;;;;;4908851;28;92501;-82
2022/06/13 04:59:42;;;;;;;4.88;1.30;;;18.70;99.90;;;;;;4908337;28;91867;-82
2022/06/13 05:02:19;;;;;;;2.75;0.77;;;18.50;99.90;;;;;;4907995;28;91711;-82
2022/06/13 05:04:45;;;;;;;6.45;1.20;;;18.30;99.90;;;;;;4908148;28;92734;-83
2022/06/13 05:07:12;;;;;;;3.28;0.85;;;18.40;99.90;;;;;;4907796;28;93233;-82
2022/06/13 05:09:43;;;;;;;4.45;0.98;;;18.60;99.90;;;;;;4908202;28;91802;-82
2022/06/13 05:12:14;;;;;;;3.10;0.90;;;18.80;99.90;;;;;;4908844;28;91709;-82
2022/06/13 05:14:46;;;;;;;4.05;1.10;;;18.90;99.90;;;;;;4907731;28;91855;-82
2022/06/13 05:17:29;;;;;;;3.83;1.02;;;19.00;99.90;;;;;;4907945;28;92028;-82
2022/06/13 05:20:11;;;;;;;4.25;1.10;;;19.10;99.90;;;;;;4911814;28;91679;-82
2022/06/13 05:22:48;;;;;;;4.60;0.90;;;19.20;99.90;;;;;;4921140;28;90955;-82
2022/06/13 05:25:29;;;;;;;2.72;1.10;;;19.20;99.90;;;;;;4922700;28;91615;-82
2022/06/13 05:27:55;;;;;;;4.05;0.80;;;19.20;99.90;;;;;;4923349;28;91990;-82
2022/06/13 05:30:22;;;;;;;6.10;1.00;;;19.20;99.90;;;;;;4927033;28;92060;-81
2022/06/13 05:32:48;;;;;;;4.90;0.90;;;19.30;99.90;;;;;;4926493;28;91258;-82
2022/06/13 05:35:21;;;;;;;4.35;1.00;;;19.30;99.90;;;;;;4917764;28;91537;-82
2022/06/13 05:37:47;;;;;;;3.17;0.90;;;19.30;99.90;;;;;;4907596;28;92046;-82
2022/06/13 05:40:18;;;;;;;4.32;0.90;;;19.40;99.90;;;;;;4907994;28;91808;-82
2022/06/13 05:42:45;;;;;;;3.17;0.95;;;19.40;99.90;;;;;;4907699;28;91829;-82
2022/06/13 05:45:12;;;;;;;3.35;1.05;;;19.40;99.90;;;;;;4908448;28;91937;-82
2022/06/13 05:47:40;;;;;;;5.15;0.82;;;19.40;99.90;;;;;;4907529;28;91148;-82
2022/06/13 05:50:05;;;;;;;6.35;0.80;;;19.30;99.90;;;;;;4907461;28;91710;-82
2022/06/13 05:52:31;;;;;;;5.20;1.00;;;19.20;99.90;;;;;;4907314;28;91838;-82
2022/06/13 05:54:57;;;;;;;5.00;0.80;;;18.90;99.90;;;;;;4906417;28;94161;-82
2022/06/13 05:57:23;;;;;;;2.78;0.85;;;18.90;99.90;;;;;;4907260;28;92307;-82
2022/06/13 05:59:49;;;;;;;3.13;0.77;;;19.10;99.90;;;;;;4909832;28;91280;-82
2022/06/13 06:02:15;;;;;;;5.63;1.13;;;19.10;99.90;;;;;;4911183;28;91735;-82
2022/06/13 06:04:40;;;;;;;2.92;1.15;;;19.20;99.90;;;;;;4910359;28;91936;-82
2022/06/13 06:07:07;;;;;;;3.75;0.95;;;19.20;99.90;;;;;;4910963;28;91881;-82
2022/06/13 06:09:33;;;;;;;2.97;0.80;;;19.20;99.90;;;;;;4911119;28;91623;-82
2022/06/13 06:11:58;;;;;;;4.38;0.80;;;19.20;99.90;;;;;;4911728;28;91510;-82
2022/06/13 06:14:24;;;;;;;4.00;0.98;;;19.20;99.90;;;;;;4910985;28;92791;-81
2022/06/13 06:16:50;;;;;;;3.42;1.15;;;19.10;99.90;;;;;;4911308;28;91732;-81
2022/06/13 06:19:16;;;;;;;4.25;1.10;;;19.10;99.90;;;;;;4910843;28;92650;-81
2022/06/13 06:21:41;;;;;;;8.05;1.65;;;19.00;99.90;;;;;;4911123;28;91805;-81
2022/06/13 06:24:07;;;;;;;5.90;1.02;;;19.00;99.90;;;;;;4910392;28;92327;-81
2022/06/13 06:26:33;;;;;;;8.00;1.23;;;19.10;99.90;;;;;;4910074;28;92979;-83
2022/06/13 06:28:59;;;;;;;6.20;1.48;;;19.10;99.90;;;;;;4911273;28;91834;-82
2022/06/13 06:31:24;;;;;;;5.63;1.08;;;19.10;99.90;;;;;;4909577;28;91848;-85
2022/06/13 06:33:50;;;;;;;6.00;1.40;;;19.00;99.90;;;;;;4904711;28;93182;-85
2022/06/13 06:36:16;;;;;;;7.32;1.27;;;19.10;99.90;;;;;;4884131;28;93419;-85
2022/06/13 06:38:43;;;;;;;5.90;1.15;;;19.00;99.90;;;;;;4931947;28;91644;-82
2022/06/13 06:41:09;;;;;;;4.22;0.98;;;18.90;99.90;;;;;;4930559;28;91799;-83
2022/06/13 06:43:35;;;;;;;7.65;1.45;;;18.90;99.90;;;;;;4925510;28;93262;-84
2022/06/13 06:46:00;;;;;;;5.35;1.50;;;19.00;99.90;;;;;;4905689;28;93878;-84
2022/06/13 06:48:27;;;;;;;3.67;1.63;;;18.90;99.90;;;;;;4906517;28;91792;-83
2022/06/13 06:50:54;;;;;;;4.80;1.23;;;18.90;99.90;;;;;;4908718;28;91913;-84
2022/06/13 06:53:23;;;;;;;6.18;1.15;;;18.80;99.90;;;;;;4905640;28;92672;-83
2022/06/13 07:01:19;;;;;;;5.03;0.90;;;19.00;99.90;;;;;;4907828;28;91077;-85
2022/06/13 07:03:45;;;;;;;5.47;1.08;;;19.20;99.90;;;;;;4907787;28;91866;-84
2022/06/13 07:06:13;;;;;;;4.70;0.80;;;19.20;99.90;;;;;;4890890;28;91904;-84
2022/06/13 07:08:39;;;;;;;4.70;0.70;;;19.20;99.90;;;;;;4894891;28;95035;-84
2022/06/13 07:13:55;;;;;;;2.53;0.80;;;19.30;99.90;;;;;;4906845;28;92478;-84
2022/06/13 07:16:21;;;;;;;3.58;1.13;;;19.20;99.90;;;;;;4903369;28;91649;-84
2022/06/13 07:18:46;;;;;;;2.88;1.02;;;19.00;99.90;;;;;;4903813;28;92370;-84
2022/06/13 07:21:14;;;;;;;5.30;1.00;;;18.80;99.90;;;;;;4902098;28;92083;-84
2022/06/13 07:23:40;;;;;;;4.68;1.15;;;18.80;99.90;;;;;;4903154;28;95135;-84
2022/06/13 07:26:06;;;;;;;6.93;1.70;;;18.60;99.90;;;;;;4904057;28;92265;-84
2022/06/13 07:28:31;;;;;;;2.90;0.98;;;18.60;99.90;;;;;;4904610;28;92245;-84
2022/06/13 07:30:57;;;;;;;3.58;1.13;;;18.70;99.90;;;;;;4904764;28;92038;-84
2022/06/13 07:33:24;;;;;;;2.90;0.82;;;18.70;99.90;;;;;;4902888;28;92819;-84
2022/06/13 07:35:49;;;;;;;2.45;0.80;;;18.60;99.90;;;;;;4903362;28;93103;-84
2022/06/13 07:38:18;;;;;;;3.10;0.85;;;18.70;99.90;;;;;;4904096;28;92875;-83
2022/06/13 07:40:59;;;;;;;6.05;1.13;;;18.80;99.90;;;;;;4904793;28;92822;-84
2022/06/13 07:43:31;;;;;;;3.95;0.88;;;18.60;99.90;;;;;;4896140;28;91871;-84
2022/06/13 07:45:59;;;;;;;3.45;0.80;;;18.70;99.90;;;;;;4904037;28;91986;-84
2022/06/13 07:48:27;;;;;;;3.78;0.70;;;18.90;99.90;;;;;;4903904;28;92221;-84
2022/06/13 07:50:53;;;;;;;4.28;1.00;;;19.00;99.90;;;;;;4905241;28;91394;-84
2022/06/13 07:53:19;;;;;;;3.03;1.02;;;19.10;99.90;;;;;;4902830;28;92490;-84
2022/06/13 07:55:44;;;;;;;1.92;0.80;;;19.10;99.90;;;;;;4901311;28;92319;-84
2022/06/13 07:58:22;;;;;;;3.00;1.00;;;19.10;99.90;;;;;;4901839;28;93067;-84
2022/06/13 08:00:49;;;;;;;7.00;1.20;;;19.10;99.90;;;;;;4904182;28;92085;-84
2022/06/13 08:03:23;;;;;;;3.05;1.05;;;19.20;99.90;;;;;;4903049;28;92261;-84
2022/06/13 08:05:50;;;;;;;2.60;1.23;;;19.50;99.90;;;;;;4904140;28;94289;-84
2022/06/13 08:08:17;;;;;;;4.35;1.20;;;19.50;99.90;;;;;;4904711;28;92001;-84
2022/06/13 08:10:43;;;;;;;4.35;1.20;;;19.70;99.90;;;;;;4903693;28;92056;-84
2022/06/13 08:13:12;;;;;;;6.65;1.00;;;19.80;99.90;;;;;;4904093;28;92192;-84
2022/06/13 08:15:38;;;;;;;5.68;1.40;;;19.80;99.90;;;;;;4905315;28;92828;-84
2022/06/13 08:18:04;;;;;;;4.07;1.25;;;19.80;99.90;;;;;;4909790;28;91968;-85
2022/06/13 08:20:30;;;;;;;4.03;1.73;;;19.90;99.90;;;;;;4909690;28;92042;-84
2022/06/13 08:22:58;;;;;;;5.10;1.25;;;20.00;99.90;;;;;;4901590;28;94789;-84
2022/06/13 08:25:32;;;;;;;8.57;1.00;;;20.20;99.90;;;;;;4911487;28;92924;-84
2022/06/13 08:27:59;;;;;;;12.27;1.80;;;20.00;99.90;;;;;;4919604;28;92049;-84
2022/06/13 08:30:49;;;;;;;6.95;1.40;;;19.90;99.90;;;;;;4918015;28;91766;-84
2022/06/13 08:33:15;;;;;;;3.42;1.00;;;20.00;99.90;;;;;;4912263;28;92367;-83
2022/06/13 08:35:41;;;;;;;3.03;0.80;;;20.10;99.90;;;;;;4904036;28;92372;-84
2022/06/13 08:38:07;;;;;;;3.67;1.00;;;20.10;99.90;;;;;;4904077;28;91923;-84
2022/06/13 08:40:48;;;;;;;5.18;1.55;;;20.10;99.90;;;;;;4898341;28;91309;-84
2022/06/13 08:43:32;;;;;;;2.58;0.95;;;20.10;99.90;;;;;;4896365;28;93362;-84
2022/06/13 08:46:16;;;;;;;2.85;0.73;;;20.30;99.90;;;;;;4899280;28;92052;-85
2022/06/13 08:48:44;;;;;;;3.30;0.82;;;20.50;99.90;;;;;;4903576;28;93331;-84
2022/06/13 08:51:40;;;;;;;2.78;0.85;;;20.50;99.90;;;;;;4904414;28;92004;-84
2022/06/13 08:54:09;;;;;;;6.80;1.10;;;20.30;99.90;;;;;;4901569;28;92535;-86
2022/06/13 08:56:36;;;;;;;4.15;0.77;;;20.20;99.90;;;;;;4902130;28;93769;-84
2022/06/13 08:59:34;;;;;;;3.13;0.80;;;20.20;99.90;;;;;;4902173;28;92220;-84
2022/06/13 09:02:21;;;;;;;4.78;0.95;;;20.20;99.90;;;;;;4891072;28;91560;-84
2022/06/13 09:05:03;;;;;;;3.35;0.55;;;20.00;99.90;;;;;;4899625;28;94508;-84
2022/06/13 09:07:37;;;;;;;3.03;0.82;;;20.20;99.90;;;;;;4895189;28;91963;-84
2022/06/13 09:10:06;;;;;;;5.30;1.20;;;20.50;99.90;;;;;;4896305;28;91999;-84
2022/06/13 09:12:52;;;;;;;2.70;0.90;;;20.70;99.90;;;;;;4904005;28;91846;-85
2022/06/13 09:15:27;;;;;;;2.63;0.55;;;21.00;99.90;;;;;;4889630;28;94073;-85
2022/06/13 09:18:14;;;;;;;3.40;0.73;;;22.60;99.90;;;;;;4905638;28;92134;-85
2022/06/13 09:21:01;;;;;;;4.15;0.98;;;24.60;93.20;;;;;;4905081;28;92097;-85
2022/06/13 09:23:37;;;;;;;4.63;0.88;;;24.70;87.50;;;;;;4905237;28;91840;-85
2022/06/13 09:26:14;;;;;;;2.25;0.85;;;24.70;86.30;;;;;;4904380;28;91927;-85
2022/06/13 09:29:09;;;;;;;2.05;0.80;;;24.50;87.90;;;;;;4903592;28;92103;-85
2022/06/13 09:31:46;;;;;;;2.20;0.88;;;24.30;85.70;;;;;;4903178;28;91889;-85
2022/06/13 09:34:16;;;;;;;3.55;1.17;;;24.70;84.40;;;;;;4904150;28;91828;-85
2022/06/13 09:36:46;;;;;;;;;;;24.40;82.10;;;;;;4903770;28;92073;-85
2022/06/13 09:39:15;;;;;;;3.88;1.30;;;23.70;84.10;;;;;;4904868;28;92101;-85
2022/06/13 09:41:49;;;;;;;6.43;1.05;;;23.30;87.10;;;;;;4896329;28;93085;-85
2022/06/13 09:44:40;;;;;;;3.38;1.77;;;23.00;89.50;;;;;;4888783;28;94398;-85
2022/06/13 09:47:31;;;;;;;3.42;1.50;;;22.50;90.40;;;;;;4903398;28;92541;-85
2022/06/13 09:50:15;;;;;;;6.78;1.70;;;22.60;91.70;;;;;;4903982;28;94726;-85
2022/06/13 09:53:07;;;;;;;3.22;1.50;;;22.60;91.50;;;;;;4903796;28;92187;-85
2022/06/13 09:55:48;;;;;;;4.90;1.40;;;22.50;91.00;;;;;;4897462;28;92141;-85
2022/06/13 09:58:23;;;;;;;5.53;1.73;;;22.20;92.00;;;;;;4902632;28;92726;-85
2022/06/13 10:01:21;;;;;;;3.97;1.38;;;22.10;92.40;;;;;;4902288;28;92026;-85
2022/06/13 10:04:14;;;;;;;5.15;2.28;;;22.00;93.30;;;;;;4883697;28;91903;-85
2022/06/13 10:07:07;;;;;;;5.03;1.75;;;22.10;93.10;;;;;;4903671;28;92066;-85
2022/06/13 10:09:51;;;;;;;3.88;1.48;;;22.30;91.90;;;;;;4895484;28;94202;-85
2022/06/13 10:12:35;;;;;;;5.03;1.58;;;22.30;93.10;;;;;;4901819;28;92992;-85
2022/06/13 10:15:28;;;;;;;3.03;1.52;;;22.70;93.20;;;;;;4897811;28;92137;-85
2022/06/13 10:18:19;;;;;;;2.67;1.00;;;23.70;90.00;;;;;;4901524;28;92417;-85
2022/06/13 10:20:58;;;;;;;2.80;0.80;;;24.80;77.00;;;;;;4893769;28;92030;-85
2022/06/13 10:23:49;;;;;;;4.45;1.48;;;25.20;75.80;;;;;;4898470;28;92088;-85
2022/06/13 10:26:29;;;;;;;2.30;0.70;;;24.50;76.10;;;;;;4895272;28;92104;-85
2022/06/13 10:29:24;;;;;;;3.47;1.25;;;24.00;70.90;;;;;;4899942;28;91402;-85
2022/06/13 10:32:39;;;;;;;1.85;0.73;;;23.20;78.10;;;;;;4892165;28;92087;-85
2022/06/13 10:35:26;;;;;;;3.38;1.00;;;23.60;79.70;;;;;;4895506;28;91948;-85
2022/06/13 10:38:26;;;;;;;2.90;0.93;;;24.40;75.60;;;;;;4903647;28;92897;-85
2022/06/13 10:40:51;;;;;;;1.80;0.60;;;24.40;73.20;;;;;;4893631;28;91729;-85
2022/06/13 10:43:18;;;;;;;2.53;0.88;;;24.70;73.40;;;;;;4899261;28;92013;-85
2022/06/13 10:45:45;;;;;;;4.78;0.90;;;24.60;72.10;;;;;;4903484;28;92827;-85
2022/06/13 10:48:22;;;;;;;4.22;1.00;;;24.40;71.00;;;;;;4902866;28;91804;-84
2022/06/13 10:51:03;;;;;;;3.65;0.93;;;24.00;72.60;;;;;;4894852;28;92188;-85
2022/06/13 10:53:43;;;;;;;3.08;1.00;;;24.10;74.40;;;;;;4901038;28;93593;-84
2022/06/13 10:56:35;;;;;;;2.25;0.70;;;24.40;72.50;;;;;;4897114;28;92659;-84
2022/06/13 10:59:01;;;;;;;4.00;1.27;;;24.50;72.50;;;;;;4898832;28;91685;-84
2022/06/13 11:01:29;;;;;;;4.32;1.00;;;24.70;68.50;;;;;;4901883;28;92266;-84
2022/06/13 11:04:15;;;;;;;3.20;0.70;;;24.80;66.30;;;;;;4900644;28;95952;-84
2022/06/13 11:06:52;;;;;;;2.20;0.90;;;24.90;66.70;;;;;;4900910;28;92888;-83
2022/06/13 11:09:34;;;;;;;5.20;0.70;;;25.00;67.70;;;;;;4900020;28;92158;-84
2022/06/13 11:12:15;;;;;;;3.50;0.65;;;25.10;65.60;;;;;;4898463;28;91983;-83
2022/06/13 11:23:46;;;;;;;1.92;0.73;;;25.90;59.90;;;;;;4900576;28;91185;-85
2022/06/13 11:29:06;;;;;;;3.95;1.00;;;25.80;62.90;;;;;;4874394;28;92103;-81
2022/06/13 11:31:32;;;;;;;4.38;1.42;;;25.40;65.80;;;;;;4903780;28;93071;-81
2022/06/13 11:34:21;;;;;;;4.07;0.90;;;25.50;64.90;;;;;;4902724;28;92238;-81
2022/06/13 11:37:03;;;;;;;3.50;1.15;;;25.50;65.90;;;;;;4894994;28;92829;-81
2022/06/13 11:39:41;;;;;;;2.47;0.90;;;25.40;67.90;;;;;;4908245;28;93898;-81
2022/06/13 11:42:29;;;;;;;11.50;1.08;;;25.70;65.10;;;;;;4905990;28;91693;-81
2022/06/13 11:44:59;;;;;;;4.78;1.27;;;26.00;64.00;;;;;;4891111;28;91848;-81
2022/06/13 11:47:26;;;;;;;4.68;1.23;;;26.20;63.10;;;;;;4898022;28;93152;-81
2022/06/13 11:49:57;;;;;;;3.80;1.17;;;25.90;62.70;;;;;;4904777;28;92917;-81
2022/06/13 11:55:24;;;;;;;3.42;0.98;;;26.10;63.90;;;;;;4908149;28;91731;-81
2022/06/13 11:57:54;;;;;;;4.35;1.33;;;26.20;64.80;;;;;;4900331;28;93199;-81
2022/06/13 12:00:20;;;;;;;3.00;1.25;;;26.10;63.00;;;;;;4902608;28;91868;-81
2022/06/13 12:03:03;;;;;;;3.38;1.10;;;26.30;60.20;;;;;;4906338;28;91731;-81
2022/06/13 12:05:35;;;;;;;9.32;1.00;;;25.70;61.10;;;;;;4891500;28;91725;-82
2022/06/13 12:08:01;;;;;;;3.15;1.27;;;25.90;64.90;;;;;;4890630;28;93475;-81
2022/06/13 12:10:33;;;;;;;4.40;1.10;;;26.20;62.90;;;;;;4890276;28;94123;-82
2022/06/13 12:12:59;;;;;;;2.97;1.38;;;26.40;60.10;;;;;;4892708;28;91852;-83
2022/06/13 12:15:40;;;;;;;2.83;0.77;;;25.90;58.40;;;;;;4893175;28;91128;-83
2022/06/13 12:18:23;;;;;;;3.17;0.65;;;25.80;63.80;;;;;;4892463;28;93831;-83
2022/06/13 12:21:23;;;;;;;3.25;0.98;;;26.20;62.40;;;;;;4893665;28;92247;-83
2022/06/13 12:24:08;;;;;;;6.28;1.30;;;26.40;59.10;;;;;;4894084;28;92770;-83
2022/06/13 12:26:36;;;;;;;3.85;1.00;;;26.20;60.80;;;;;;4893969;28;91735;-83
2022/06/13 12:29:14;;;;;;;11.98;1.45;;;26.20;62.70;;;;;;4892814;28;92840;-83
2022/06/13 12:31:47;;;;;;;6.25;1.35;;;25.80;61.70;;;;;;4891266;28;92414;-83
2022/06/13 12:34:30;;;;;;;3.08;1.00;;;25.70;61.70;;;;;;4892208;28;91734;-84
2022/06/13 12:37:12;;;;;;;9.18;1.23;;;26.10;65.40;;;;;;4892592;28;91859;-83
2022/06/13 12:40:09;;;;;;;5.40;1.42;;;26.40;61.90;;;;;;4890787;28;91887;-84
2022/06/13 12:43:09;;;;;;;3.58;1.05;;;26.40;58.00;;;;;;4892060;28;91173;-83
2022/06/13 12:45:59;;;;;;;3.58;1.00;;;26.20;59.60;;;;;;4892190;28;91701;-83
2022/06/13 12:48:24;;;;;;;5.18;0.88;;;26.00;61.50;;;;;;4907799;28;91869;-83
2022/06/13 12:51:02;;;;;;;3.95;0.80;;;25.90;58.20;;;;;;4908965;28;94161;-83
2022/06/13 12:53:41;;;;;;;10.45;1.40;;;25.90;57.50;;;;;;4909618;28;92733;-83
2022/06/13 12:56:37;;;;;;;4.78;1.20;;;25.90;55.10;;;;;;4908483;28;91706;-83
2022/06/13 12:59:11;;;;;;;4.15;0.80;;;25.30;55.40;;;;;;4911758;28;91849;-83
2022/06/13 13:01:43;;;;;;;4.65;0.80;;;24.90;56.00;;;;;;4909474;28;92039;-84
2022/06/13 13:04:27;;;;;;;14.90;1.00;;;24.70;58.20;;;;;;4910807;28;91692;-83
2022/06/13 13:07:29;;;;;;;4.10;0.70;;;24.50;56.50;;;;;;4910741;28;91703;-83
2022/06/13 13:10:21;;;;;;;3.20;0.80;;;24.40;57.90;;;;;;4912020;28;90525;-84
2022/06/13 13:13:21;;;;;;;4.78;0.82;;;24.30;57.50;;;;;;4910001;28;93729;-83
2022/06/13 13:16:09;;;;;;;3.03;0.73;;;24.50;58.20;;;;;;4910586;28;91834;-82
2022/06/13 13:19:01;;;;;;;2.95;0.80;;;24.70;56.80;;;;;;4909632;28;92770;-83
2022/06/13 13:21:38;;;;;;;4.75;0.75;;;24.80;56.00;;;;;;4910870;28;91351;-82
2022/06/13 13:24:32;;;;;;;9.00;1.92;;;24.60;57.60;;;;;;4908446;28;91703;-83
2022/06/13 13:27:09;;;;;;;3.88;0.73;;;24.20;59.20;;;;;;4910321;28;92482;-83
2022/06/13 13:30:20;;;;;;;3.75;0.73;;;24.30;59.90;;;;;;4903708;28;91818;-85
2022/06/13 13:33:23;;;;;;;2.17;0.88;;;24.00;60.10;;;;;;4887491;28;91888;-84
2022/06/13 13:36:19;;;;;;;2.80;0.77;;;23.90;58.70;;;;;;4893965;28;93720;-83
2022/06/13 13:38:50;;;;;;;3.60;0.70;;;23.50;60.40;;;;;;4894813;28;91334;-83
2022/06/13 13:41:48;;;;;;;2.90;0.60;;;23.40;58.20;;;;;;4893153;28;91707;-83
2022/06/13 13:44:27;;;;;;;4.43;0.90;;;23.40;61.10;;;;;;4877061;28;92134;-85
2022/06/13 13:47:02;;;;;;;4.90;0.93;;;23.60;59.60;;;;;;4899086;28;93066;-83
2022/06/13 13:49:42;;;;;;;2.78;0.70;;;23.70;58.80;;;;;;4907246;28;93234;-83
2022/06/13 13:52:17;;;;;;;8.77;0.93;;;23.60;60.30;;;;;;4903022;28;91988;-82
2022/06/13 13:54:56;;;;;;;3.03;0.47;;;23.70;59.10;;;;;;4904099;28;92082;-82
2022/06/13 13:57:25;;;;;;;3.08;0.70;;;23.90;58.30;;;;;;4893817;28;91893;-82
2022/06/13 13:59:56;;;;;;;5.53;1.13;;;24.00;59.20;;;;;;4905189;28;93148;-81
2022/06/13 14:02:45;;;;;;;3.03;1.02;;;24.10;58.40;;;;;;4907832;28;91876;-82
2022/06/13 14:05:38;;;;;;;2.80;0.63;;;24.10;60.70;;;;;;4908852;28;91119;-82
2022/06/13 14:08:09;;;;;;;6.25;1.00;;;24.20;57.90;;;;;;4906438;28;92476;-81
2022/06/13 14:10:42;;;;;;;4.07;0.68;;;24.20;58.60;;;;;;4909821;28;92858;-82
2022/06/13 14:13:08;;;;;;;2.58;1.02;;;24.10;58.40;;;;;;4910503;28;92804;-82
2022/06/13 14:15:55;;;;;;;4.72;1.13;;;24.30;57.80;;;;;;4904490;28;92215;-82
2022/06/13 14:18:26;;;;;;;2.38;1.05;;;24.30;57.80;;;;;;4877751;28;94380;-82
2022/06/13 14:20:52;;;;;;;4.30;0.80;;;24.30;57.60;;;;;;4912562;28;91697;-82
2022/06/13 14:23:36;;;;;;;3.53;0.70;;;24.40;60.40;;;;;;4912124;28;92081;-81
2022/06/13 14:26:03;;;;;;;5.93;0.60;;;24.50;61.90;;;;;;4906402;28;91788;-82
2022/06/13 14:28:56;;;;;;;3.80;0.75;;;24.40;59.60;;;;;;4909841;28;92388;-82
2022/06/13 14:31:22;;;;;;;5.25;0.73;;;24.50;59.20;;;;;;4913083;28;91189;-81
2022/06/13 14:36:47;;;;;;;4.18;0.82;;;24.40;58.20;;;;;;4909710;28;91700;-85
2022/06/13 14:39:38;;;;;;;2.90;0.73;;;24.40;56.60;;;;;;4907052;28;95314;-84
2022/06/13 14:42:16;;;;;;;2.65;0.60;;;24.30;56.00;;;;;;4919062;28;92783;-81
2022/06/13 14:45:08;;;;;;;3.28;0.80;;;24.40;58.60;;;;;;4920574;28;91823;-82
2022/06/13 14:48:12;;;;;;;4.47;1.05;;;24.50;58.10;;;;;;4864024;28;91803;-82
2022/06/13 14:50:42;;;;;;;3.47;0.47;;;24.40;57.90;;;;;;4899539;28;95143;-82
2022/06/13 14:53:26;;;;;;;5.50;0.70;;;24.40;59.10;;;;;;4907517;28;92052;-82
2022/06/13 14:56:15;;;;;;;2.83;0.70;;;24.40;56.50;;;;;;4920362;28;91835;-82
2022/06/13 14:58:49;;;;;;;2.78;0.40;;;24.40;56.90;;;;;;4915513;28;91096;-83
2022/06/13 15:01:24;;;;;;;2.50;0.50;;;24.40;56.80;;;;;;4918149;28;93224;-82
2022/06/13 15:04:06;;;;;;;3.20;0.63;;;24.50;52.30;;;;;;4917724;28;91685;-82
2022/06/13 15:06:44;;;;;;;3.95;0.43;;;24.50;51.90;;;;;;4920796;28;92861;-82
2022/06/13 15:09:45;;;;;;;5.75;0.75;;;24.40;51.30;;;;;;4920042;28;91668;-82
2022/06/13 15:12:14;;;;;;;3.85;0.40;;;24.40;51.30;;;;;;4917401;28;92820;-82
2022/06/13 15:14:51;;;;;;;2.38;0.50;;;24.10;54.10;;;;;;4919431;28;92891;-83
2022/06/13 15:17:18;;;;;;;3.50;0.40;;;24.00;53.40;;;;;;4920066;28;91758;-82
2022/06/13 15:19:49;;;;;;;5.68;0.80;;;24.00;54.40;;;;;;4908366;28;91914;-83
2022/06/13 15:22:23;;;;;;;3.47;0.60;;;24.10;54.90;;;;;;4916373;28;93716;-82
2022/06/13 15:24:52;;;;;;;4.75;0.50;;;24.10;51.80;;;;;;4919440;28;91790;-82
2022/06/13 15:27:18;;;;;;;2.30;0.70;;;24.20;55.70;;;;;;4915180;28;91987;-82
2022/06/13 15:30:04;;;;;;;2.17;0.52;;;24.30;51.70;;;;;;4920320;28;91849;-82
2022/06/13 15:32:32;;;;;;;2.47;0.43;;;24.40;51.30;;;;;;4913609;28;94748;-83
2022/06/13 15:35:01;;;;;;;2.80;0.50;;;24.40;49.20;;;;;;4914388;28;93861;-81
2022/06/13 15:37:45;;;;;;;2.53;0.63;;;24.40;51.30;;;;;;4906167;28;91832;-80
2022/06/13 15:40:30;;;;;;;2.33;0.80;;;24.40;52.50;;;;;;4915155;28;92064;-80
2022/06/13 15:42:56;;;;;;;3.65;0.90;;;24.40;52.90;;;;;;4914508;28;91667;-80
2022/06/13 15:45:36;;;;;;;1.45;0.43;;;24.30;52.20;;;;;;4914803;28;91697;-80
2022/06/13 15:48:04;;;;;;;2.50;0.40;;;24.40;53.50;;;;;;4913909;28;94856;-80
2022/06/13 15:50:31;;;;;;;2.92;0.52;;;24.40;49.50;;;;;;4910178;28;91918;-80
2022/06/13 15:52:59;;;;;;;1.85;0.32;;;24.40;51.40;;;;;;4898480;28;93276;-78
2022/06/13 15:55:30;;;;;;;1.85;0.70;;;24.30;51.60;;;;;;4908613;28;92866;-78
2022/06/13 15:57:58;;;;;;;1.77;0.40;;;24.20;52.90;;;;;;4907872;28;92628;-78
2022/06/13 16:00:39;;;;;;;4.32;0.90;;;24.30;53.80;;;;;;4907532;28;91833;-78
2022/06/13 16:03:16;;;;;;;2.78;0.40;;;24.30;49.10;;;;;;4909279;28;92065;-78
2022/06/13 16:05:51;;;;;;;1.80;0.30;;;24.30;51.80;;;;;;4907363;28;92841;-79
2022/06/13 16:08:17;;;;;;;;;;;24.30;50.80;;;;;;4910121;28;91829;-78
2022/06/13 16:10:52;;;;;;;1.55;0.47;;;24.40;50.50;;;;;;4924072;28;92044;-78
2022/06/13 16:13:35;;;;;;;2.97;0.55;;;24.30;50.70;;;;;;4895453;28;93570;-77
2022/06/13 16:16:05;;;;;;;2.88;0.30;;;24.10;52.20;;;;;;4910195;28;92434;-78
2022/06/13 16:18:34;;;;;;;3.72;0.40;;;24.20;50.00;;;;;;4902379;28;91861;-79
2022/06/13 16:21:02;;;;;;;1.38;0.43;;;24.20;49.40;;;;;;4913884;28;91715;-79
2022/06/13 16:23:29;;;;;;;3.38;0.55;;;24.10;50.20;;;;;;4913105;28;93341;-79
2022/06/13 16:25:56;;;;;;;2.80;0.60;;;24.00;51.80;;;;;;4913701;28;93294;-80
2022/06/13 16:28:25;;;;;;;3.05;0.45;;;24.00;49.30;;;;;;4913055;28;91358;-79
2022/06/13 16:30:53;;;;;;;1.77;0.45;;;24.10;50.40;;;;;;4911092;28;92168;-80
2022/06/13 16:33:30;;;;;;;2.53;0.50;;;24.00;50.30;;;;;;4914930;28;94303;-80
2022/06/13 16:36:21;;;;;;;3.08;1.23;;;24.10;50.30;;;;;;4915346;28;91966;-79
2022/06/13 16:38:48;;;;;;;2.60;0.63;;;24.10;49.30;;;;;;4912647;28;91704;-79
2022/06/13 16:41:23;;;;;;;6.40;0.60;;;23.90;49.90;;;;;;4915668;28;91207;-79
2022/06/13 16:43:52;;;;;;;2.45;0.50;;;23.90;51.90;;;;;;4900284;28;93312;-80
2022/06/13 16:46:18;;;;;;;4.28;0.45;;;23.80;48.40;;;;;;4899890;28;93458;-81
2022/06/13 16:48:47;;;;;;;1.90;0.63;;;23.90;50.10;;;;;;4910884;28;93097;-81